BAW936D EGLL-EDDM
Flight info
| Callsign | BAW936D |
|---|---|
| Flight time | N/A |
| Altitude | 37000 |
| Route | DET L6 DVR UL9 KONAN UL607 SPI DCT MOVUM T109 HAREM T104 ROKIL ROKIL1A |
| Aircraft | A320/M-SDE3FGHIRWY/LB1 |
Departure
| Time | 2026-05-04 15:49 |
|---|---|
| Airport | London Heathrow Airport (EGLL) |
Arrival
| Time | N/A |
|---|---|
| Airport | Munich Airport (EDDM) |
| Time | Latitude | Longitude | Altitude | Speed | Heading |
|---|---|---|---|---|---|
| 2026-05-04 15:18 | 51.47316 | -0.47728 | 86 ft | 0 kts | 89° |
| 2026-05-04 15:37 | 51.47316 | -0.47734 | 90 ft | 2 kts | 89° |
| 2026-05-04 15:37 | 51.47315 | -0.47765 | 86 ft | 3 kts | 83° |
| 2026-05-04 15:37 | 51.47312 | -0.47796 | 86 ft | 3 kts | 75° |
| 2026-05-04 15:37 | 51.47305 | -0.47826 | 90 ft | 3 kts | 63° |
| 2026-05-04 15:38 | 51.47295 | -0.47853 | 88 ft | 3 kts | 44° |
| 2026-05-04 15:38 | 51.47280 | -0.47870 | 90 ft | 2 kts | 11° |
| 2026-05-04 15:38 | 51.47273 | -0.47872 | 88 ft | 0 kts | 359° |
| 2026-05-04 15:41 | 51.47274 | -0.47872 | 88 ft | 1 kts | 359° |
| 2026-05-04 15:41 | 51.47314 | -0.47873 | 88 ft | 13 kts | 359° |
| 2026-05-04 15:41 | 51.47421 | -0.47871 | 86 ft | 17 kts | 0° |
| 2026-05-04 15:42 | 51.47483 | -0.47836 | 88 ft | 10 kts | 69° |
| 2026-05-04 15:42 | 51.47489 | -0.47685 | 86 ft | 15 kts | 91° |
| 2026-05-04 15:42 | 51.47488 | -0.47496 | 88 ft | 18 kts | 89° |
| 2026-05-04 15:42 | 51.47490 | -0.47285 | 86 ft | 20 kts | 88° |
| 2026-05-04 15:43 | 51.47493 | -0.47047 | 86 ft | 22 kts | 89° |
| 2026-05-04 15:43 | 51.47527 | -0.46931 | 87 ft | 10 kts | 12° |
| 2026-05-04 15:43 | 51.47590 | -0.46843 | 87 ft | 15 kts | 82° |
| 2026-05-04 15:43 | 51.47592 | -0.46656 | 86 ft | 18 kts | 90° |
| 2026-05-04 15:44 | 51.47592 | -0.46436 | 86 ft | 21 kts | 89° |
| 2026-05-04 15:44 | 51.47594 | -0.46194 | 88 ft | 23 kts | 89° |
| 2026-05-04 15:44 | 51.47595 | -0.45946 | 90 ft | 25 kts | 90° |
| 2026-05-04 15:44 | 51.47596 | -0.45661 | 87 ft | 27 kts | 89° |
| 2026-05-04 15:45 | 51.47598 | -0.45355 | 86 ft | 28 kts | 90° |
| 2026-05-04 15:45 | 51.47598 | -0.45033 | 86 ft | 30 kts | 90° |
| 2026-05-04 15:45 | 51.47600 | -0.44694 | 86 ft | 31 kts | 91° |
| 2026-05-04 15:45 | 51.47600 | -0.44342 | 86 ft | 32 kts | 91° |
| 2026-05-04 15:46 | 51.47591 | -0.44046 | 86 ft | 18 kts | 90° |
| 2026-05-04 15:46 | 51.47593 | -0.43829 | 86 ft | 21 kts | 89° |
| 2026-05-04 15:46 | 51.47595 | -0.43590 | 88 ft | 22 kts | 80° |
| 2026-05-04 15:46 | 51.47686 | -0.43426 | 91 ft | 9 kts | 10° |
| 2026-05-04 15:47 | 51.47757 | -0.43415 | 89 ft | 11 kts | 354° |
| 2026-05-04 15:47 | 51.47771 | -0.43523 | 90 ft | 12 kts | 269° |
| 2026-05-04 15:47 | 51.47770 | -0.43677 | 89 ft | 18 kts | 269° |
| 2026-05-04 15:47 | 51.47771 | -0.44245 | 87 ft | 86 kts | 270° |
| 2026-05-04 15:48 | 51.47766 | -0.45511 | 85 ft | 139 kts | 270° |
| 2026-05-04 15:48 | 51.47762 | -0.46679 | 106 ft | 166 kts | 271° |
| 2026-05-04 15:48 | 51.47752 | -0.47341 | 284 ft | 166 kts | 270° |
| 2026-05-04 15:49 | 51.47724 | -0.48203 | 613 ft | 165 kts | 270° |
| 2026-05-04 15:49 | 51.47689 | -0.50066 | 1332 ft | 167 kts | 271° |
| 2026-05-04 15:49 | 51.47660 | -0.51998 | 1779 ft | 187 kts | 267° |
| 2026-05-04 15:49 | 51.47289 | -0.54108 | 2121 ft | 211 kts | 242° |
| 2026-05-04 15:50 | 51.46253 | -0.55959 | 2479 ft | 239 kts | 213° |
| 2026-05-04 15:50 | 51.44613 | -0.56873 | 3070 ft | 260 kts | 184° |
| 2026-05-04 15:50 | 51.42829 | -0.56451 | 4027 ft | 266 kts | 156° |
| 2026-05-04 15:50 | 51.41331 | -0.54753 | 5026 ft | 269 kts | 129° |
| 2026-05-04 15:51 | 51.40225 | -0.52299 | 5735 ft | 273 kts | 127° |
| 2026-05-04 15:51 | 51.39004 | -0.49887 | 5954 ft | 273 kts | 131° |
| 2026-05-04 15:51 | 51.37761 | -0.47648 | 5998 ft | 273 kts | 132° |
| 2026-05-04 15:51 | 51.36491 | -0.45411 | 6006 ft | 272 kts | 133° |
| 2026-05-04 15:52 | 51.35227 | -0.43165 | 6010 ft | 272 kts | 132° |
| 2026-05-04 15:52 | 51.33965 | -0.40883 | 6007 ft | 272 kts | 131° |
| 2026-05-04 15:52 | 51.32820 | -0.38472 | 6002 ft | 274 kts | 119° |
| 2026-05-04 15:52 | 51.32112 | -0.35663 | 5981 ft | 274 kts | 103° |
| 2026-05-04 15:53 | 51.31900 | -0.32652 | 5983 ft | 274 kts | 90° |
| 2026-05-04 15:53 | 51.31765 | -0.29555 | 6528 ft | 280 kts | 96° |
| 2026-05-04 15:53 | 51.31523 | -0.26466 | 7499 ft | 280 kts | 98° |
| 2026-05-04 15:53 | 51.31253 | -0.23447 | 8393 ft | 282 kts | 98° |
| 2026-05-04 15:54 | 51.30964 | -0.20323 | 9277 ft | 285 kts | 99° |
| 2026-05-04 15:54 | 51.30670 | -0.17159 | 10120 ft | 289 kts | 99° |
| 2026-05-04 15:54 | 51.30369 | -0.13888 | 10490 ft | 310 kts | 99° |
| 2026-05-04 15:54 | 51.30047 | -0.10341 | 10739 ft | 332 kts | 99° |
| 2026-05-04 15:55 | 51.29718 | -0.06671 | 11287 ft | 341 kts | 99° |
| 2026-05-04 15:55 | 51.29380 | -0.02850 | 11971 ft | 345 kts | 99° |
| 2026-05-04 15:55 | 51.29043 | 0.00971 | 12643 ft | 349 kts | 99° |
| 2026-05-04 15:55 | 51.28704 | 0.04794 | 13308 ft | 353 kts | 98° |
| 2026-05-04 15:56 | 51.28352 | 0.08755 | 13980 ft | 357 kts | 99° |
| 2026-05-04 15:56 | 51.28001 | 0.12672 | 14588 ft | 361 kts | 99° |
| 2026-05-04 15:56 | 51.27642 | 0.16650 | 15211 ft | 363 kts | 99° |
| 2026-05-04 15:56 | 51.27398 | 0.19354 | 15615 ft | 365 kts | 99° |
| 2026-05-04 15:57 | 51.27033 | 0.23389 | 16211 ft | 368 kts | 99° |
| 2026-05-04 15:57 | 51.26542 | 0.28792 | 16993 ft | 372 kts | 99° |
| 2026-05-04 15:57 | 51.26168 | 0.32893 | 17582 ft | 376 kts | 100° |
| 2026-05-04 15:57 | 51.25913 | 0.35679 | 17983 ft | 378 kts | 100° |
| 2026-05-04 15:58 | 51.25533 | 0.39799 | 18531 ft | 381 kts | 100° |
| 2026-05-04 15:58 | 51.25144 | 0.43996 | 19055 ft | 384 kts | 100° |
| 2026-05-04 15:58 | 51.24752 | 0.48225 | 19563 ft | 387 kts | 100° |
| 2026-05-04 15:58 | 51.24358 | 0.52467 | 20115 ft | 391 kts | 100° |
| 2026-05-04 15:59 | 51.23957 | 0.56778 | 20627 ft | 394 kts | 100° |
| 2026-05-04 15:59 | 51.23684 | 0.59699 | 20954 ft | 396 kts | 100° |
| 2026-05-04 15:59 | 51.23091 | 0.66005 | 21649 ft | 400 kts | 101° |
| 2026-05-04 15:59 | 51.22669 | 0.70466 | 22118 ft | 403 kts | 101° |
| 2026-05-04 16:00 | 51.22245 | 0.74931 | 22590 ft | 407 kts | 101° |
| 2026-05-04 16:00 | 51.21819 | 0.79409 | 23060 ft | 410 kts | 101° |
| 2026-05-04 16:00 | 51.21388 | 0.83901 | 23521 ft | 413 kts | 101° |
| 2026-05-04 16:00 | 51.20944 | 0.88465 | 23905 ft | 416 kts | 101° |
| 2026-05-04 16:01 | 51.20499 | 0.93012 | 24308 ft | 418 kts | 101° |
| 2026-05-04 16:01 | 51.20050 | 0.97612 | 24738 ft | 420 kts | 101° |
| 2026-05-04 16:01 | 51.19601 | 1.02239 | 25191 ft | 421 kts | 101° |
| 2026-05-04 16:01 | 51.19151 | 1.06860 | 25587 ft | 423 kts | 101° |
| 2026-05-04 16:02 | 51.18697 | 1.11493 | 25967 ft | 425 kts | 102° |
| 2026-05-04 16:02 | 51.18245 | 1.16069 | 26336 ft | 427 kts | 102° |
| 2026-05-04 16:02 | 51.17309 | 1.25490 | 27068 ft | 432 kts | 102° |
| 2026-05-04 16:03 | 51.16833 | 1.30204 | 27438 ft | 434 kts | 102° |
| 2026-05-04 16:03 | 51.16351 | 1.34971 | 27803 ft | 436 kts | 102° |
| 2026-05-04 16:03 | 51.15944 | 1.39788 | 28173 ft | 440 kts | 99° |
| 2026-05-04 16:03 | 51.15661 | 1.44659 | 28515 ft | 443 kts | 97° |
| 2026-05-04 16:04 | 51.15456 | 1.49587 | 28854 ft | 446 kts | 96° |
| 2026-05-04 16:04 | 51.15105 | 1.59528 | 29554 ft | 451 kts | 96° |
| 2026-05-04 16:04 | 51.14904 | 1.64500 | 29942 ft | 452 kts | 97° |
| 2026-05-04 16:05 | 51.14674 | 1.69513 | 30394 ft | 450 kts | 97° |
| 2026-05-04 16:05 | 51.14427 | 1.74409 | 30815 ft | 449 kts | 97° |
| 2026-05-04 16:05 | 51.13905 | 1.84311 | 31661 ft | 448 kts | 98° |
| 2026-05-04 16:06 | 51.13637 | 1.89319 | 32098 ft | 448 kts | 98° |
| 2026-05-04 16:06 | 51.12939 | 2.02462 | 33192 ft | 447 kts | 98° |
| 2026-05-04 16:07 | 51.12594 | 2.08979 | 33739 ft | 447 kts | 98° |
| 2026-05-04 16:07 | 51.11808 | 2.23682 | 34774 ft | 446 kts | 98° |
| 2026-05-04 16:08 | 51.11541 | 2.28603 | 35084 ft | 446 kts | 98° |
| 2026-05-04 16:08 | 51.10729 | 2.43319 | 35936 ft | 446 kts | 98° |
| 2026-05-04 16:09 | 51.10166 | 2.53156 | 35990 ft | 446 kts | 98° |
| 2026-05-04 16:10 | 51.08160 | 2.72489 | 35990 ft | 441 kts | 109° |